sensor_id;sensor_type;location;lat;lon;timestamp;temperature;humidity
48019;DHT22;33786;48.690;9.562;2023-02-21T00:01:21;0.70;99.90
48019;DHT22;33786;48.690;9.562;2023-02-21T00:04:06;0.70;99.90
48019;DHT22;33786;48.690;9.562;2023-02-21T00:06:52;0.70;99.90
48019;DHT22;33786;48.690;9.562;2023-02-21T00:09:38;0.70;99.90
48019;DHT22;33786;48.690;9.562;2023-02-21T00:12:23;0.60;99.90
48019;DHT22;33786;48.690;9.562;2023-02-21T00:15:09;0.60;99.90
48019;DHT22;33786;48.690;9.562;2023-02-21T00:17:55;0.60;99.90
48019;DHT22;33786;48.690;9.562;2023-02-21T00:20:40;0.60;99.90
48019;DHT22;33786;48.690;9.562;2023-02-21T00:23:26;0.60;99.90
48019;DHT22;33786;48.690;9.562;2023-02-21T00:26:16;0.60;99.90
48019;DHT22;33786;48.690;9.562;2023-02-21T00:29:01;0.60;99.90
48019;DHT22;33786;48.690;9.562;2023-02-21T00:31:46;0.60;99.90
48019;DHT22;33786;48.690;9.562;2023-02-21T00:34:31;0.50;99.90
48019;DHT22;33786;48.690;9.562;2023-02-21T00:37:17;0.50;99.90
48019;DHT22;33786;48.690;9.562;2023-02-21T00:40:02;0.50;99.90
48019;DHT22;33786;48.690;9.562;2023-02-21T00:42:47;0.50;99.90
48019;DHT22;33786;48.690;9.562;2023-02-21T00:45:33;0.40;99.90
48019;DHT22;33786;48.690;9.562;2023-02-21T00:48:21;0.40;99.90
48019;DHT22;33786;48.690;9.562;2023-02-21T00:51:07;0.40;99.90
48019;DHT22;33786;48.690;9.562;2023-02-21T00:53:53;0.30;99.90
48019;DHT22;33786;48.690;9.562;2023-02-21T00:56:38;0.30;99.90
48019;DHT22;33786;48.690;9.562;2023-02-21T00:59:23;0.20;99.90
48019;DHT22;33786;48.690;9.562;2023-02-21T01:02:09;0.20;99.90
48019;DHT22;33786;48.690;9.562;2023-02-21T01:04:54;0.20;99.90
48019;DHT22;33786;48.690;9.562;2023-02-21T01:07:40;0.10;99.90
48019;DHT22;33786;48.690;9.562;2023-02-21T01:10:25;0.20;99.90
48019;DHT22;33786;48.690;9.562;2023-02-21T01:13:10;0.10;99.90
48019;DHT22;33786;48.690;9.562;2023-02-21T01:15:56;0.10;99.90
48019;DHT22;33786;48.690;9.562;2023-02-21T01:18:41;0.00;99.90
48019;DHT22;33786;48.690;9.562;2023-02-21T01:21:26;0.00;99.90
48019;DHT22;33786;48.690;9.562;2023-02-21T01:24:13;0.00;99.90
48019;DHT22;33786;48.690;9.562;2023-02-21T01:26:58;0.10;99.90
48019;DHT22;33786;48.690;9.562;2023-02-21T01:29:43;0.10;99.90
48019;DHT22;33786;48.690;9.562;2023-02-21T01:32:29;0.10;99.90
48019;DHT22;33786;48.690;9.562;2023-02-21T01:35:14;0.40;99.90
48019;DHT22;33786;48.690;9.562;2023-02-21T01:38:00;0.10;99.90
48019;DHT22;33786;48.690;9.562;2023-02-21T01:40:45;0.00;99.90
48019;DHT22;33786;48.690;9.562;2023-02-21T01:43:30;-0.10;99.90
48019;DHT22;33786;48.690;9.562;2023-02-21T01:46:16;-0.10;99.90
48019;DHT22;33786;48.690;9.562;2023-02-21T01:49:04;-0.10;99.90
48019;DHT22;33786;48.690;9.562;2023-02-21T01:51:49;-0.10;99.90
48019;DHT22;33786;48.690;9.562;2023-02-21T01:54:37;-0.10;99.90
48019;DHT22;33786;48.690;9.562;2023-02-21T01:57:23;-0.10;99.90
48019;DHT22;33786;48.690;9.562;2023-02-21T02:00:10;-0.10;99.90
48019;DHT22;33786;48.690;9.562;2023-02-21T02:02:58;-0.10;99.90
48019;DHT22;33786;48.690;9.562;2023-02-21T02:05:45;-0.10;99.90
48019;DHT22;33786;48.690;9.562;2023-02-21T02:08:31;-0.20;99.90
48019;DHT22;33786;48.690;9.562;2023-02-21T02:17:18;-0.30;99.90
48019;DHT22;33786;48.690;9.562;2023-02-21T02:19:54;-0.30;99.90
48019;DHT22;33786;48.690;9.562;2023-02-21T02:25:20;-0.30;99.90
48019;DHT22;33786;48.690;9.562;2023-02-21T02:33:02;-0.40;99.90
48019;DHT22;33786;48.690;9.562;2023-02-21T02:35:34;-0.40;99.90
48019;DHT22;33786;48.690;9.562;2023-02-21T02:38:24;-0.40;99.90
48019;DHT22;33786;48.690;9.562;2023-02-21T02:40:57;-0.40;99.90
48019;DHT22;33786;48.690;9.562;2023-02-21T02:43:29;-0.40;99.90
48019;DHT22;33786;48.690;9.562;2023-02-21T02:48:26;-0.40;99.90
48019;DHT22;33786;48.690;9.562;2023-02-21T02:50:54;-0.30;99.90
48019;DHT22;33786;48.690;9.562;2023-02-21T02:53:24;-0.30;99.90
48019;DHT22;33786;48.690;9.562;2023-02-21T02:56:01;-0.40;99.90
48019;DHT22;33786;48.690;9.562;2023-02-21T02:58:29;-0.40;99.90
48019;DHT22;33786;48.690;9.562;2023-02-21T03:09:08;-0.30;99.90
48019;DHT22;33786;48.690;9.562;2023-02-21T03:11:27;-0.40;99.90
48019;DHT22;33786;48.690;9.562;2023-02-21T03:13:57;-0.40;99.90
48019;DHT22;33786;48.690;9.562;2023-02-21T03:16:28;-0.40;99.90
48019;DHT22;33786;48.690;9.562;2023-02-21T03:19:07;-0.40;99.90
48019;DHT22;33786;48.690;9.562;2023-02-21T03:21:40;-0.40;99.90
48019;DHT22;33786;48.690;9.562;2023-02-21T03:24:07;-0.40;99.90
48019;DHT22;33786;48.690;9.562;2023-02-21T03:26:36;-0.40;99.90
48019;DHT22;33786;48.690;9.562;2023-02-21T03:29:04;-0.50;99.90
48019;DHT22;33786;48.690;9.562;2023-02-21T03:31:37;-0.50;99.90
48019;DHT22;33786;48.690;9.562;2023-02-21T03:34:05;-0.60;99.90
48019;DHT22;33786;48.690;9.562;2023-02-21T03:36:32;-0.60;99.90
48019;DHT22;33786;48.690;9.562;2023-02-21T03:38:59;-0.60;99.90
48019;DHT22;33786;48.690;9.562;2023-02-21T03:41:25;-0.60;99.90
48019;DHT22;33786;48.690;9.562;2023-02-21T03:43:52;-0.60;99.90
48019;DHT22;33786;48.690;9.562;2023-02-21T03:46:19;-0.60;99.90
48019;DHT22;33786;48.690;9.562;2023-02-21T03:48:46;-0.60;99.90
48019;DHT22;33786;48.690;9.562;2023-02-21T03:51:13;-0.60;99.90
48019;DHT22;33786;48.690;9.562;2023-02-21T03:53:40;-0.70;99.90
48019;DHT22;33786;48.690;9.562;2023-02-21T03:56:07;-0.70;99.90
48019;DHT22;33786;48.690;9.562;2023-02-21T03:58:34;-0.70;99.90
48019;DHT22;33786;48.690;9.562;2023-02-21T04:01:03;-0.80;99.90
48019;DHT22;33786;48.690;9.562;2023-02-21T04:03:30;-0.70;99.90
48019;DHT22;33786;48.690;9.562;2023-02-21T04:05:57;-0.70;99.90
48019;DHT22;33786;48.690;9.562;2023-02-21T04:08:23;-0.70;99.90
48019;DHT22;33786;48.690;9.562;2023-02-21T04:10:50;-0.70;99.90
48019;DHT22;33786;48.690;9.562;2023-02-21T04:13:18;-0.70;99.90
48019;DHT22;33786;48.690;9.562;2023-02-21T04:15:45;-0.70;99.90
48019;DHT22;33786;48.690;9.562;2023-02-21T04:18:12;-0.70;99.90
48019;DHT22;33786;48.690;9.562;2023-02-21T04:20:38;-0.70;99.90
48019;DHT22;33786;48.690;9.562;2023-02-21T04:23:05;-0.70;99.90
48019;DHT22;33786;48.690;9.562;2023-02-21T04:25:32;-0.70;99.90
48019;DHT22;33786;48.690;9.562;2023-02-21T04:27:58;-0.70;99.90
48019;DHT22;33786;48.690;9.562;2023-02-21T04:30:25;-0.70;99.90
48019;DHT22;33786;48.690;9.562;2023-02-21T04:32:52;-0.70;99.90
48019;DHT22;33786;48.690;9.562;2023-02-21T04:35:19;-0.70;99.90
48019;DHT22;33786;48.690;9.562;2023-02-21T04:37:45;-0.70;99.90
48019;DHT22;33786;48.690;9.562;2023-02-21T04:40:12;-0.70;99.90
48019;DHT22;33786;48.690;9.562;2023-02-21T04:42:39;-0.70;99.90
48019;DHT22;33786;48.690;9.562;2023-02-21T04:45:06;-0.80;99.90
48019;DHT22;33786;48.690;9.562;2023-02-21T04:47:33;-0.80;99.90
48019;DHT22;33786;48.690;9.562;2023-02-21T04:49:59;-0.70;99.90
48019;DHT22;33786;48.690;9.562;2023-02-21T04:52:26;-0.80;99.90
48019;DHT22;33786;48.690;9.562;2023-02-21T04:54:53;-0.70;99.90
48019;DHT22;33786;48.690;9.562;2023-02-21T04:57:19;-0.70;99.90
48019;DHT22;33786;48.690;9.562;2023-02-21T04:59:46;-0.70;99.90
48019;DHT22;33786;48.690;9.562;2023-02-21T05:02:13;-0.70;99.90
48019;DHT22;33786;48.690;9.562;2023-02-21T05:04:39;-0.80;99.90
48019;DHT22;33786;48.690;9.562;2023-02-21T05:07:08;-0.90;99.90
48019;DHT22;33786;48.690;9.562;2023-02-21T05:09:35;-0.90;99.90
48019;DHT22;33786;48.690;9.562;2023-02-21T05:12:01;-0.90;99.90
48019;DHT22;33786;48.690;9.562;2023-02-21T05:14:28;-0.80;99.90
48019;DHT22;33786;48.690;9.562;2023-02-21T05:16:55;-0.80;99.90
48019;DHT22;33786;48.690;9.562;2023-02-21T05:19:22;-0.80;99.90
48019;DHT22;33786;48.690;9.562;2023-02-21T05:21:56;-0.90;99.90
48019;DHT22;33786;48.690;9.562;2023-02-21T05:24:23;-0.90;99.90
48019;DHT22;33786;48.690;9.562;2023-02-21T05:26:50;-0.90;99.90
48019;DHT22;33786;48.690;9.562;2023-02-21T05:29:17;-0.90;99.90
48019;DHT22;33786;48.690;9.562;2023-02-21T05:31:44;-0.90;99.90
48019;DHT22;33786;48.690;9.562;2023-02-21T05:34:11;-0.90;99.90
48019;DHT22;33786;48.690;9.562;2023-02-21T05:36:39;-0.90;99.90
48019;DHT22;33786;48.690;9.562;2023-02-21T05:39:06;-1.00;99.90
48019;DHT22;33786;48.690;9.562;2023-02-21T05:41:33;-0.90;99.90
48019;DHT22;33786;48.690;9.562;2023-02-21T05:44:01;-0.90;99.90
48019;DHT22;33786;48.690;9.562;2023-02-21T05:46:29;-0.80;99.90
48019;DHT22;33786;48.690;9.562;2023-02-21T05:48:56;-0.70;99.90
48019;DHT22;33786;48.690;9.562;2023-02-21T05:51:24;-0.70;99.90
48019;DHT22;33786;48.690;9.562;2023-02-21T05:53:51;-0.70;99.90
48019;DHT22;33786;48.690;9.562;2023-02-21T05:56:17;-0.70;99.90
48019;DHT22;33786;48.690;9.562;2023-02-21T05:58:45;-0.80;99.90
48019;DHT22;33786;48.690;9.562;2023-02-21T06:01:12;-0.80;99.90
48019;DHT22;33786;48.690;9.562;2023-02-21T06:03:39;-0.80;99.90
48019;DHT22;33786;48.690;9.562;2023-02-21T06:06:06;-0.80;99.90
48019;DHT22;33786;48.690;9.562;2023-02-21T06:08:40;-0.80;99.90
48019;DHT22;33786;48.690;9.562;2023-02-21T06:11:07;-0.80;99.90
48019;DHT22;33786;48.690;9.562;2023-02-21T06:13:33;-0.80;99.90
48019;DHT22;33786;48.690;9.562;2023-02-21T06:16:00;-0.70;99.90
48019;DHT22;33786;48.690;9.562;2023-02-21T06:18:27;-0.70;99.90
48019;DHT22;33786;48.690;9.562;2023-02-21T06:20:53;-0.70;99.90
48019;DHT22;33786;48.690;9.562;2023-02-21T06:23:20;-0.60;99.90
48019;DHT22;33786;48.690;9.562;2023-02-21T06:25:46;-0.50;99.90
48019;DHT22;33786;48.690;9.562;2023-02-21T06:28:13;-0.10;99.90
48019;DHT22;33786;48.690;9.562;2023-02-21T06:30:40;-0.40;99.90
48019;DHT22;33786;48.690;9.562;2023-02-21T06:33:07;-0.30;99.90
48019;DHT22;33786;48.690;9.562;2023-02-21T06:35:33;-0.20;99.90
48019;DHT22;33786;48.690;9.562;2023-02-21T06:38:00;-0.10;99.90
48019;DHT22;33786;48.690;9.562;2023-02-21T06:40:26;0.00;99.90
48019;DHT22;33786;48.690;9.562;2023-02-21T06:42:53;0.10;99.90
48019;DHT22;33786;48.690;9.562;2023-02-21T06:45:20;0.30;99.90
48019;DHT22;33786;48.690;9.562;2023-02-21T06:47:46;0.40;99.90
48019;DHT22;33786;48.690;9.562;2023-02-21T06:50:13;0.50;99.90
48019;DHT22;33786;48.690;9.562;2023-02-21T06:52:40;0.60;99.90
48019;DHT22;33786;48.690;9.562;2023-02-21T06:55:09;0.80;99.90
48019;DHT22;33786;48.690;9.562;2023-02-21T06:57:36;1.20;99.90
48019;DHT22;33786;48.690;9.562;2023-02-21T07:00:03;1.90;99.90
48019;DHT22;33786;48.690;9.562;2023-02-21T07:02:30;2.90;99.90
48019;DHT22;33786;48.690;9.562;2023-02-21T07:04:57;3.70;99.90
48019;DHT22;33786;48.690;9.562;2023-02-21T07:07:23;4.20;99.90
48019;DHT22;33786;48.690;9.562;2023-02-21T07:09:50;4.20;99.90
48019;DHT22;33786;48.690;9.562;2023-02-21T07:12:17;4.20;99.90
48019;DHT22;33786;48.690;9.562;2023-02-21T07:14:43;4.50;99.90
48019;DHT22;33786;48.690;9.562;2023-02-21T07:17:10;4.80;99.90
48019;DHT22;33786;48.690;9.562;2023-02-21T07:19:37;5.30;99.90
48019;DHT22;33786;48.690;9.562;2023-02-21T07:22:04;6.40;99.10
48019;DHT22;33786;48.690;9.562;2023-02-21T07:24:30;7.90;96.20
48019;DHT22;33786;48.690;9.562;2023-02-21T07:26:57;9.80;92.70
48019;DHT22;33786;48.690;9.562;2023-02-21T07:29:24;11.30;89.50
48019;DHT22;33786;48.690;9.562;2023-02-21T07:31:51;12.80;83.90
48019;DHT22;33786;48.690;9.562;2023-02-21T07:34:18;13.90;77.60
48019;DHT22;33786;48.690;9.562;2023-02-21T07:36:45;14.60;76.00
48019;DHT22;33786;48.690;9.562;2023-02-21T07:39:12;15.30;73.70
48019;DHT22;33786;48.690;9.562;2023-02-21T07:41:38;15.70;70.90
48019;DHT22;33786;48.690;9.562;2023-02-21T07:44:05;16.10;69.70
48019;DHT22;33786;48.690;9.562;2023-02-21T07:46:33;15.90;69.50
48019;DHT22;33786;48.690;9.562;2023-02-21T07:49:00;16.10;68.80
48019;DHT22;33786;48.690;9.562;2023-02-21T07:51:28;17.10;66.90
48019;DHT22;33786;48.690;9.562;2023-02-21T07:53:55;16.60;67.10
48019;DHT22;33786;48.690;9.562;2023-02-21T07:56:22;17.30;66.10
48019;DHT22;33786;48.690;9.562;2023-02-21T07:58:49;17.20;66.10
48019;DHT22;33786;48.690;9.562;2023-02-21T08:01:16;17.40;65.90
48019;DHT22;33786;48.690;9.562;2023-02-21T08:03:43;18.40;63.70
48019;DHT22;33786;48.690;9.562;2023-02-21T08:06:09;19.20;61.90
48019;DHT22;33786;48.690;9.562;2023-02-21T08:08:37;19.90;60.90
48019;DHT22;33786;48.690;9.562;2023-02-21T08:11:03;19.90;59.10
48019;DHT22;33786;48.690;9.562;2023-02-21T08:13:30;20.20;58.60
48019;DHT22;33786;48.690;9.562;2023-02-21T08:15:57;20.60;58.00
48019;DHT22;33786;48.690;9.562;2023-02-21T08:18:24;21.60;56.30
48019;DHT22;33786;48.690;9.562;2023-02-21T08:20:51;21.60;56.20
48019;DHT22;33786;48.690;9.562;2023-02-21T08:23:17;22.20;55.30
48019;DHT22;33786;48.690;9.562;2023-02-21T08:25:44;21.80;54.30
48019;DHT22;33786;48.690;9.562;2023-02-21T08:28:11;21.30;56.70
48019;DHT22;33786;48.690;9.562;2023-02-21T08:30:38;21.00;56.10
48019;DHT22;33786;48.690;9.562;2023-02-21T08:33:05;20.20;56.70
48019;DHT22;33786;48.690;9.562;2023-02-21T08:35:32;20.10;57.50
48019;DHT22;33786;48.690;9.562;2023-02-21T08:37:58;19.70;57.90
48019;DHT22;33786;48.690;9.562;2023-02-21T08:40:29;19.60;58.70
48019;DHT22;33786;48.690;9.562;2023-02-21T08:42:57;19.90;57.00
48019;DHT22;33786;48.690;9.562;2023-02-21T08:45:24;20.50;55.70
48019;DHT22;33786;48.690;9.562;2023-02-21T08:47:52;21.50;54.60
48019;DHT22;33786;48.690;9.562;2023-02-21T08:50:20;21.60;54.70
48019;DHT22;33786;48.690;9.562;2023-02-21T08:52:48;21.10;54.30
48019;DHT22;33786;48.690;9.562;2023-02-21T08:55:15;21.00;54.70
48019;DHT22;33786;48.690;9.562;2023-02-21T08:57:42;22.50;53.30
48019;DHT22;33786;48.690;9.562;2023-02-21T09:00:09;21.80;53.80
48019;DHT22;33786;48.690;9.562;2023-02-21T09:02:37;21.40;53.90
48019;DHT22;33786;48.690;9.562;2023-02-21T09:07:33;22.20;53.90
48019;DHT22;33786;48.690;9.562;2023-02-21T09:10:00;23.40;52.50
48019;DHT22;33786;48.690;9.562;2023-02-21T09:12:27;24.60;50.50
48019;DHT22;33786;48.690;9.562;2023-02-21T09:14:53;24.40;50.60
48019;DHT22;33786;48.690;9.562;2023-02-21T09:17:20;24.20;51.70
48019;DHT22;33786;48.690;9.562;2023-02-21T09:19:47;24.60;50.10
48019;DHT22;33786;48.690;9.562;2023-02-21T09:22:13;24.50;50.70
48019;DHT22;33786;48.690;9.562;2023-02-21T09:24:40;23.60;51.60
48019;DHT22;33786;48.690;9.562;2023-02-21T09:27:07;24.00;50.10
48019;DHT22;33786;48.690;9.562;2023-02-21T09:29:34;24.60;49.00
48019;DHT22;33786;48.690;9.562;2023-02-21T09:32:11;25.20;49.10
48019;DHT22;33786;48.690;9.562;2023-02-21T09:34:38;26.20;48.50
48019;DHT22;33786;48.690;9.562;2023-02-21T09:37:05;25.90;47.50
48019;DHT22;33786;48.690;9.562;2023-02-21T09:39:32;25.80;47.60
48019;DHT22;33786;48.690;9.562;2023-02-21T09:41:59;26.50;47.60
48019;DHT22;33786;48.690;9.562;2023-02-21T09:44:26;26.40;47.00
48019;DHT22;33786;48.690;9.562;2023-02-21T09:46:55;27.00;47.40
48019;DHT22;33786;48.690;9.562;2023-02-21T09:49:42;25.40;48.10
48019;DHT22;33786;48.690;9.562;2023-02-21T09:52:15;24.80;48.50
48019;DHT22;33786;48.690;9.562;2023-02-21T09:54:45;25.70;47.10
48019;DHT22;33786;48.690;9.562;2023-02-21T09:57:13;24.90;48.80
48019;DHT22;33786;48.690;9.562;2023-02-21T09:59:40;24.50;48.90
48019;DHT22;33786;48.690;9.562;2023-02-21T10:12:30;26.70;46.60
48019;DHT22;33786;48.690;9.562;2023-02-21T10:20:13;27.10;46.40
48019;DHT22;33786;48.690;9.562;2023-02-21T10:22:42;26.80;45.90
48019;DHT22;33786;48.690;9.562;2023-02-21T10:27:48;25.80;47.70
48019;DHT22;33786;48.690;9.562;2023-02-21T10:30:26;25.60;48.00
48019;DHT22;33786;48.690;9.562;2023-02-21T10:32:55;25.40;47.70
48019;DHT22;33786;48.690;9.562;2023-02-21T10:35:22;24.80;48.20
48019;DHT22;33786;48.690;9.562;2023-02-21T10:37:50;25.10;47.90
48019;DHT22;33786;48.690;9.562;2023-02-21T10:42:54;27.10;46.90
48019;DHT22;33786;48.690;9.562;2023-02-21T10:45:23;27.10;46.50
48019;DHT22;33786;48.690;9.562;2023-02-21T10:47:57;27.80;45.80
48019;DHT22;33786;48.690;9.562;2023-02-21T10:50:43;27.00;46.10
48019;DHT22;33786;48.690;9.562;2023-02-21T10:56:05;26.70;48.30
48019;DHT22;33786;48.690;9.562;2023-02-21T10:58:32;27.30;47.20
48019;DHT22;33786;48.690;9.562;2023-02-21T11:01:09;27.50;46.30
48019;DHT22;33786;48.690;9.562;2023-02-21T11:03:41;27.30;46.10
48019;DHT22;33786;48.690;9.562;2023-02-21T11:06:08;26.90;47.00
48019;DHT22;33786;48.690;9.562;2023-02-21T11:08:39;27.00;48.00
48019;DHT22;33786;48.690;9.562;2023-02-21T11:11:06;26.60;46.90
48019;DHT22;33786;48.690;9.562;2023-02-21T11:13:34;26.00;47.20
48019;DHT22;33786;48.690;9.562;2023-02-21T11:16:15;26.30;47.10
48019;DHT22;33786;48.690;9.562;2023-02-21T11:18:42;25.90;48.10
48019;DHT22;33786;48.690;9.562;2023-02-21T11:21:27;24.70;49.10
48019;DHT22;33786;48.690;9.562;2023-02-21T11:23:54;24.30;48.90
48019;DHT22;33786;48.690;9.562;2023-02-21T11:26:24;24.00;51.00
48019;DHT22;33786;48.690;9.562;2023-02-21T11:28:51;23.70;49.40
48019;DHT22;33786;48.690;9.562;2023-02-21T11:33:53;24.10;50.00
48019;DHT22;33786;48.690;9.562;2023-02-21T11:36:25;24.40;48.90
48019;DHT22;33786;48.690;9.562;2023-02-21T11:41:37;24.40;49.30
48019;DHT22;33786;48.690;9.562;2023-02-21T11:46:49;23.90;49.70
48019;DHT22;33786;48.690;9.562;2023-02-21T11:49:28;24.70;49.10
48019;DHT22;33786;48.690;9.562;2023-02-21T11:52:00;25.00;49.10
48019;DHT22;33786;48.690;9.562;2023-02-21T11:54:28;25.50;47.40
48019;DHT22;33786;48.690;9.562;2023-02-21T11:57:02;25.20;48.40
48019;DHT22;33786;48.690;9.562;2023-02-21T11:59:40;25.60;48.00
48019;DHT22;33786;48.690;9.562;2023-02-21T12:05:00;23.20;49.90
48019;DHT22;33786;48.690;9.562;2023-02-21T12:10:04;23.10;51.10
48019;DHT22;33786;48.690;9.562;2023-02-21T12:15:23;22.40;52.10
48019;DHT22;33786;48.690;9.562;2023-02-21T12:23:03;21.50;53.10
48019;DHT22;33786;48.690;9.562;2023-02-21T12:49:13;18.20;62.00
48019;DHT22;33786;48.690;9.562;2023-02-21T12:51:46;18.30;60.30
48019;DHT22;33786;48.690;9.562;2023-02-21T12:54:18;18.30;60.60
48019;DHT22;33786;48.690;9.562;2023-02-21T12:56:47;18.50;63.10
48019;DHT22;33786;48.690;9.562;2023-02-21T12:59:26;18.30;60.00
48019;DHT22;33786;48.690;9.562;2023-02-21T13:02:09;18.40;61.10
48019;DHT22;33786;48.690;9.562;2023-02-21T13:04:46;18.50;60.00
48019;DHT22;33786;48.690;9.562;2023-02-21T13:07:16;18.60;60.50
48019;DHT22;33786;48.690;9.562;2023-02-21T13:09:57;18.60;59.90
48019;DHT22;33786;48.690;9.562;2023-02-21T13:14:53;18.30;60.40
48019;DHT22;33786;48.690;9.562;2023-02-21T13:17:21;18.30;62.20
48019;DHT22;33786;48.690;9.562;2023-02-21T13:19:51;18.00;61.10
48019;DHT22;33786;48.690;9.562;2023-02-21T13:28:04;17.80;61.80
48019;DHT22;33786;48.690;9.562;2023-02-21T13:30:37;17.80;62.50
48019;DHT22;33786;48.690;9.562;2023-02-21T13:33:04;17.80;61.90
48019;DHT22;33786;48.690;9.562;2023-02-21T13:35:36;17.50;63.10
48019;DHT22;33786;48.690;9.562;2023-02-21T13:38:04;17.60;62.30
48019;DHT22;33786;48.690;9.562;2023-02-21T13:43:06;17.60;62.30
48019;DHT22;33786;48.690;9.562;2023-02-21T13:45:35;17.70;62.50
48019;DHT22;33786;48.690;9.562;2023-02-21T13:55:35;17.40;62.10
48019;DHT22;33786;48.690;9.562;2023-02-21T14:03:01;17.30;62.30
48019;DHT22;33786;48.690;9.562;2023-02-21T14:10:59;17.50;61.90
48019;DHT22;33786;48.690;9.562;2023-02-21T14:16:08;17.40;62.40
48019;DHT22;33786;48.690;9.562;2023-02-21T14:34:16;17.60;62.10
48019;DHT22;33786;48.690;9.562;2023-02-21T14:36:45;17.40;62.20
48019;DHT22;33786;48.690;9.562;2023-02-21T14:39:12;17.50;61.90
48019;DHT22;33786;48.690;9.562;2023-02-21T14:44:41;17.60;61.80
48019;DHT22;33786;48.690;9.562;2023-02-21T14:49:44;17.60;62.50
48019;DHT22;33786;48.690;9.562;2023-02-21T14:52:35;17.70;62.50
48019;DHT22;33786;48.690;9.562;2023-02-21T15:00:44;17.50;62.30
48019;DHT22;33786;48.690;9.562;2023-02-21T15:03:23;17.30;62.60
48019;DHT22;33786;48.690;9.562;2023-02-21T15:06:08;17.20;62.50
48019;DHT22;33786;48.690;9.562;2023-02-21T15:08:45;17.30;62.90
48019;DHT22;33786;48.690;9.562;2023-02-21T15:11:31;17.20;63.00
48019;DHT22;33786;48.690;9.562;2023-02-21T15:16:43;17.20;63.40
48019;DHT22;33786;48.690;9.562;2023-02-21T15:19:24;17.10;63.60
48019;DHT22;33786;48.690;9.562;2023-02-21T15:24:33;16.80;64.10
48019;DHT22;33786;48.690;9.562;2023-02-21T15:27:10;16.80;64.30
48019;DHT22;33786;48.690;9.562;2023-02-21T15:29:37;16.90;64.30
48019;DHT22;33786;48.690;9.562;2023-02-21T15:32:04;16.90;64.40
48019;DHT22;33786;48.690;9.562;2023-02-21T15:34:38;16.90;64.10
48019;DHT22;33786;48.690;9.562;2023-02-21T15:37:15;16.90;64.30
48019;DHT22;33786;48.690;9.562;2023-02-21T15:39:43;16.80;64.50
48019;DHT22;33786;48.690;9.562;2023-02-21T15:42:12;16.80;64.60
48019;DHT22;33786;48.690;9.562;2023-02-21T15:44:41;16.80;64.80
48019;DHT22;33786;48.690;9.562;2023-02-21T15:47:18;16.70;65.30
48019;DHT22;33786;48.690;9.562;2023-02-21T15:49:51;16.60;65.50
48019;DHT22;33786;48.690;9.562;2023-02-21T15:57:39;16.40;66.00
48019;DHT22;33786;48.690;9.562;2023-02-21T16:00:22;16.30;66.10
48019;DHT22;33786;48.690;9.562;2023-02-21T16:02:49;16.30;66.70
48019;DHT22;33786;48.690;9.562;2023-02-21T16:05:27;16.20;66.60
48019;DHT22;33786;48.690;9.562;2023-02-21T16:08:00;16.10;67.20
48019;DHT22;33786;48.690;9.562;2023-02-21T16:10:30;16.10;67.60
48019;DHT22;33786;48.690;9.562;2023-02-21T16:12:57;16.00;67.70
48019;DHT22;33786;48.690;9.562;2023-02-21T16:15:43;15.90;68.30
48019;DHT22;33786;48.690;9.562;2023-02-21T16:18:10;15.80;68.40
48019;DHT22;33786;48.690;9.562;2023-02-21T16:20:42;15.70;69.30
48019;DHT22;33786;48.690;9.562;2023-02-21T16:28:35;15.30;70.70
48019;DHT22;33786;48.690;9.562;2023-02-21T16:31:02;15.10;71.20
48019;DHT22;33786;48.690;9.562;2023-02-21T16:33:30;14.90;71.90
48019;DHT22;33786;48.690;9.562;2023-02-21T16:35:57;14.80;72.70
48019;DHT22;33786;48.690;9.562;2023-02-21T16:38:27;14.60;73.50
48019;DHT22;33786;48.690;9.562;2023-02-21T16:40:54;14.30;74.40
48019;DHT22;33786;48.690;9.562;2023-02-21T16:43:22;14.10;75.10
48019;DHT22;33786;48.690;9.562;2023-02-21T16:45:50;13.80;76.40
48019;DHT22;33786;48.690;9.562;2023-02-21T16:48:20;13.50;77.20
48019;DHT22;33786;48.690;9.562;2023-02-21T16:50:47;13.30;78.20
48019;DHT22;33786;48.690;9.562;2023-02-21T16:53:15;13.10;78.60
48019;DHT22;33786;48.690;9.562;2023-02-21T16:55:43;12.90;79.20
48019;DHT22;33786;48.690;9.562;2023-02-21T16:58:21;12.70;80.10
48019;DHT22;33786;48.690;9.562;2023-02-21T17:00:51;12.50;81.30
48019;DHT22;33786;48.690;9.562;2023-02-21T17:03:18;12.20;82.00
48019;DHT22;33786;48.690;9.562;2023-02-21T17:05:45;12.00;83.10
48019;DHT22;33786;48.690;9.562;2023-02-21T17:08:13;11.80;84.10
48019;DHT22;33786;48.690;9.562;2023-02-21T17:10:39;11.60;84.90
48019;DHT22;33786;48.690;9.562;2023-02-21T17:13:06;11.40;85.90
48019;DHT22;33786;48.690;9.562;2023-02-21T17:15:32;11.10;87.00
48019;DHT22;33786;48.690;9.562;2023-02-21T17:17:59;10.90;87.90
48019;DHT22;33786;48.690;9.562;2023-02-21T17:20:26;10.80;89.00
48019;DHT22;33786;48.690;9.562;2023-02-21T17:22:53;10.60;90.00
48019;DHT22;33786;48.690;9.562;2023-02-21T17:25:21;10.40;90.50
48019;DHT22;33786;48.690;9.562;2023-02-21T17:27:48;10.20;90.80
48019;DHT22;33786;48.690;9.562;2023-02-21T17:30:15;10.10;91.20
48019;DHT22;33786;48.690;9.562;2023-02-21T17:32:42;10.00;91.40
48019;DHT22;33786;48.690;9.562;2023-02-21T17:35:10;9.80;91.90
48019;DHT22;33786;48.690;9.562;2023-02-21T17:37:39;9.60;92.40
48019;DHT22;33786;48.690;9.562;2023-02-21T17:40:06;9.50;92.90
48019;DHT22;33786;48.690;9.562;2023-02-21T17:42:33;9.30;93.30
48019;DHT22;33786;48.690;9.562;2023-02-21T17:45:00;9.20;93.70
48019;DHT22;33786;48.690;9.562;2023-02-21T17:47:27;9.10;94.10
48019;DHT22;33786;48.690;9.562;2023-02-21T17:49:54;8.90;94.50
48019;DHT22;33786;48.690;9.562;2023-02-21T17:52:22;8.80;95.10
48019;DHT22;33786;48.690;9.562;2023-02-21T17:54:49;8.70;95.70
48019;DHT22;33786;48.690;9.562;2023-02-21T17:57:16;8.60;96.00
48019;DHT22;33786;48.690;9.562;2023-02-21T17:59:42;8.50;96.40
48019;DHT22;33786;48.690;9.562;2023-02-21T18:02:10;8.40;96.60
48019;DHT22;33786;48.690;9.562;2023-02-21T18:04:38;8.40;96.90
48019;DHT22;33786;48.690;9.562;2023-02-21T18:07:05;8.20;97.30
48019;DHT22;33786;48.690;9.562;2023-02-21T18:09:32;8.10;97.60
48019;DHT22;33786;48.690;9.562;2023-02-21T18:11:59;8.00;98.10
48019;DHT22;33786;48.690;9.562;2023-02-21T18:14:26;8.00;98.40
48019;DHT22;33786;48.690;9.562;2023-02-21T18:16:55;7.90;98.50
48019;DHT22;33786;48.690;9.562;2023-02-21T18:19:23;7.80;98.90
48019;DHT22;33786;48.690;9.562;2023-02-21T18:21:50;7.70;99.10
48019;DHT22;33786;48.690;9.562;2023-02-21T18:24:16;7.60;99.50
48019;DHT22;33786;48.690;9.562;2023-02-21T18:26:44;7.50;99.80
48019;DHT22;33786;48.690;9.562;2023-02-21T18:29:12;7.40;99.90
48019;DHT22;33786;48.690;9.562;2023-02-21T18:31:38;7.40;99.90
48019;DHT22;33786;48.690;9.562;2023-02-21T18:34:05;7.30;99.90
48019;DHT22;33786;48.690;9.562;2023-02-21T18:36:33;7.20;99.90
48019;DHT22;33786;48.690;9.562;2023-02-21T18:39:01;7.20;99.90
48019;DHT22;33786;48.690;9.562;2023-02-21T18:41:27;7.10;99.90
48019;DHT22;33786;48.690;9.562;2023-02-21T18:43:54;7.00;99.90
48019;DHT22;33786;48.690;9.562;2023-02-21T18:46:21;6.90;99.90
48019;DHT22;33786;48.690;9.562;2023-02-21T18:48:49;6.80;99.90